createdAt,value
2022-09-30T00:00:12.207Z,12.40
2022-09-30T00:00:34.968Z,12.10
2022-09-30T00:00:57.754Z,11.77
2022-09-30T00:01:20.657Z,11.70
2022-09-30T00:01:44.071Z,12.27
2022-09-30T00:02:07.025Z,12.57
2022-09-30T00:02:29.853Z,11.50
2022-09-30T00:02:52.644Z,12.00
2022-09-30T00:03:15.471Z,11.63
2022-09-30T00:03:40.358Z,11.38
2022-09-30T00:04:03.114Z,11.90
2022-09-30T00:04:25.869Z,11.88
2022-09-30T00:04:48.653Z,11.88
2022-09-30T00:05:11.487Z,11.85
2022-09-30T00:05:34.373Z,11.88
2022-09-30T00:05:58.246Z,11.48
2022-09-30T00:06:21.200Z,11.00
2022-09-30T00:06:44.079Z,11.48
2022-09-30T00:07:06.923Z,11.50
2022-09-30T00:07:29.978Z,11.32
2022-09-30T00:07:53.131Z,11.32
2022-09-30T00:08:15.858Z,11.10
2022-09-30T00:08:38.603Z,11.68
2022-09-30T00:09:02.585Z,12.20
2022-09-30T00:09:25.572Z,12.07
2022-09-30T00:09:48.962Z,12.70
2022-09-30T00:10:12.418Z,11.18
2022-09-30T00:10:35.240Z,12.00
2022-09-30T00:11:02.031Z,11.23
2022-09-30T00:11:26.003Z,11.77
2022-09-30T00:11:48.754Z,11.77
2022-09-30T00:12:11.444Z,13.18
2022-09-30T00:12:34.153Z,12.85
2022-09-30T00:12:58.649Z,12.27
2022-09-30T00:13:22.448Z,11.98
2022-09-30T00:13:49.202Z,12.52
2022-09-30T00:14:15.278Z,12.18
2022-09-30T00:14:37.983Z,12.10
2022-09-30T00:15:01.963Z,12.10
2022-09-30T00:15:24.822Z,11.55
2022-09-30T00:15:47.582Z,11.50
2022-09-30T00:16:10.789Z,12.25
2022-09-30T00:16:34.774Z,11.90
2022-09-30T00:16:57.725Z,11.80
2022-09-30T00:17:21.157Z,12.07
2022-09-30T00:17:43.872Z,12.00
2022-09-30T00:18:06.586Z,12.70
2022-09-30T00:18:29.295Z,11.88
2022-09-30T00:18:55.537Z,11.73
2022-09-30T00:19:18.236Z,11.65
2022-09-30T00:19:41.101Z,11.70
2022-09-30T00:20:04.136Z,12.10
2022-09-30T00:20:26.960Z,11.75
2022-09-30T00:20:49.697Z,11.77
2022-09-30T00:21:12.980Z,12.07
2022-09-30T00:21:35.779Z,12.10
2022-09-30T00:21:58.485Z,12.43
2022-09-30T00:22:21.326Z,11.80
2022-09-30T00:22:45.322Z,11.43
2022-09-30T00:23:08.016Z,11.35
2022-09-30T00:23:31.060Z,11.45
2022-09-30T00:23:55.015Z,11.70
2022-09-30T00:24:17.787Z,11.13
2022-09-30T00:24:40.483Z,11.75
2022-09-30T00:25:03.342Z,11.63
2022-09-30T00:25:26.267Z,11.40
2022-09-30T00:25:48.966Z,13.27
2022-09-30T00:26:13.216Z,11.80
2022-09-30T00:26:35.962Z,11.75
2022-09-30T00:26:58.638Z,12.10
2022-09-30T00:27:21.688Z,11.95
2022-09-30T00:27:44.459Z,12.02
2022-09-30T00:28:08.229Z,11.85
2022-09-30T00:28:31.150Z,12.70
2022-09-30T00:28:55.361Z,12.93
2022-09-30T00:29:18.262Z,12.48
2022-09-30T00:29:41.078Z,12.07
2022-09-30T00:30:04.041Z,12.05
2022-09-30T00:30:26.915Z,11.95
2022-09-30T00:30:49.619Z,12.13
2022-09-30T00:31:15.041Z,12.50
2022-09-30T00:31:37.922Z,13.10
2022-09-30T00:32:01.048Z,12.55
2022-09-30T00:32:23.855Z,12.45
2022-09-30T00:32:46.610Z,12.57
2022-09-30T00:33:09.382Z,12.50
2022-09-30T00:33:32.222Z,13.07
2022-09-30T00:34:08.649Z,11.95
2022-09-30T00:34:33.554Z,12.50
2022-09-30T00:34:56.296Z,13.00
2022-09-30T00:35:22.412Z,12.52
2022-09-30T00:35:45.435Z,12.70
2022-09-30T00:36:08.146Z,12.63
2022-09-30T00:36:33.805Z,12.18
2022-09-30T00:36:56.831Z,12.65
2022-09-30T00:37:19.608Z,12.10
2022-09-30T00:37:43.041Z,12.55
2022-09-30T00:38:05.768Z,12.70
2022-09-30T00:38:28.665Z,13.20
2022-09-30T00:38:51.357Z,13.70
2022-09-30T00:39:16.387Z,13.45
2022-09-30T00:39:39.096Z,13.50
2022-09-30T00:40:02.091Z,12.93
2022-09-30T00:40:24.856Z,12.90
2022-09-30T00:40:47.550Z,12.88
2022-09-30T00:41:10.262Z,13.30
2022-09-30T00:41:33.404Z,13.57
2022-09-30T00:41:57.781Z,12.95
2022-09-30T00:42:20.737Z,12.82
2022-09-30T00:42:43.507Z,13.65
2022-09-30T00:43:09.761Z,12.63
2022-09-30T00:43:41.667Z,13.18
2022-09-30T00:44:37.622Z,13.40
2022-09-30T00:45:05.053Z,12.70
2022-09-30T00:45:27.859Z,13.27
2022-09-30T00:45:52.424Z,13.30
2022-09-30T00:46:19.202Z,12.75
2022-09-30T00:46:44.847Z,13.05
2022-09-30T00:47:15.226Z,12.60
2022-09-30T00:48:28.695Z,11.98
2022-09-30T00:48:54.207Z,12.95
2022-09-30T00:49:19.159Z,12.38
2022-09-30T00:49:41.949Z,13.25
2022-09-30T00:50:11.389Z,13.20
2022-09-30T00:50:36.854Z,13.85
2022-09-30T00:50:59.613Z,13.57
2022-09-30T00:51:27.700Z,13.18
2022-09-30T00:51:52.338Z,12.57
2022-09-30T00:52:15.054Z,12.63
2022-09-30T00:52:37.735Z,12.68
2022-09-30T00:53:07.852Z,14.77
2022-09-30T00:53:31.214Z,13.45
2022-09-30T00:53:55.975Z,13.35
2022-09-30T00:54:19.936Z,13.52
2022-09-30T00:54:42.749Z,13.02
2022-09-30T00:55:08.593Z,13.45
2022-09-30T00:55:46.163Z,13.05
2022-09-30T00:56:09.849Z,12.93
2022-09-30T00:56:34.655Z,12.48
2022-09-30T00:57:00.349Z,11.85
2022-09-30T00:57:23.048Z,12.45
2022-09-30T00:57:45.777Z,12.60
2022-09-30T00:58:09.848Z,13.20
2022-09-30T00:58:35.630Z,13.40
2022-09-30T00:59:02.097Z,11.90
2022-09-30T00:59:26.234Z,11.93
2022-09-30T00:59:48.973Z,12.65
2022-09-30T01:00:11.969Z,12.70
2022-09-30T01:00:34.804Z,12.32
2022-09-30T01:00:58.464Z,12.95
2022-09-30T01:01:21.329Z,13.07
2022-09-30T01:01:45.037Z,13.07
2022-09-30T01:02:07.887Z,12.35
2022-09-30T01:02:30.852Z,12.45
2022-09-30T01:02:53.924Z,12.60
2022-09-30T01:03:16.654Z,13.02
2022-09-30T01:03:42.474Z,13.13
2022-09-30T01:04:06.813Z,13.48
2022-09-30T01:04:31.227Z,12.65
2022-09-30T01:04:55.061Z,12.70
2022-09-30T01:05:17.841Z,12.70
2022-09-30T01:05:40.631Z,13.13
2022-09-30T01:06:03.420Z,13.27
2022-09-30T01:06:26.559Z,13.40
2022-09-30T01:06:49.341Z,13.18
2022-09-30T01:07:12.155Z,13.00
2022-09-30T01:07:34.911Z,13.25
2022-09-30T01:07:57.851Z,12.75
2022-09-30T01:08:20.806Z,12.93
2022-09-30T01:08:43.534Z,12.70
2022-09-30T01:09:06.447Z,13.30
2022-09-30T01:09:32.349Z,13.18
2022-09-30T01:09:55.118Z,12.90
2022-09-30T01:10:17.962Z,12.40
2022-09-30T01:10:40.797Z,13.25
2022-09-30T01:11:07.867Z,13.43
2022-09-30T01:11:31.011Z,12.98
2022-09-30T01:11:53.776Z,13.55
2022-09-30T01:12:18.630Z,13.15
2022-09-30T01:12:41.435Z,12.55
2022-09-30T01:13:04.301Z,12.73
2022-09-30T01:13:27.859Z,13.02
2022-09-30T01:13:52.600Z,13.70
2022-09-30T01:14:16.261Z,13.77
2022-09-30T01:14:39.036Z,13.13
2022-09-30T01:15:01.810Z,14.85
2022-09-30T01:15:28.077Z,14.38
2022-09-30T01:16:07.051Z,13.15
2022-09-30T01:16:50.870Z,13.45
2022-09-30T01:17:16.970Z,14.90
2022-09-30T01:17:47.103Z,13.30
2022-09-30T01:18:12.352Z,13.13
2022-09-30T01:18:46.740Z,13.50
2022-09-30T01:19:22.952Z,13.38
2022-09-30T01:20:03.662Z,13.13
2022-09-30T01:20:53.301Z,13.70
2022-09-30T01:22:00.771Z,13.25
2022-09-30T01:22:32.280Z,13.52
2022-09-30T01:23:02.835Z,13.98
2022-09-30T01:24:00.230Z,17.40
2022-09-30T01:25:00.802Z,14.60
2022-09-30T01:25:57.565Z,14.10
2022-09-30T01:27:07.939Z,14.30
2022-09-30T01:28:00.464Z,14.07
2022-09-30T01:28:38.730Z,13.73
2022-09-30T01:29:33.184Z,14.45
2022-09-30T01:30:10.086Z,14.25
2022-09-30T01:30:47.312Z,14.40
2022-09-30T01:31:16.217Z,14.27
2022-09-30T01:31:48.034Z,13.93
2022-09-30T01:32:13.701Z,14.18
2022-09-30T01:33:04.197Z,14.13
2022-09-30T01:33:32.403Z,14.50
2022-09-30T01:33:57.147Z,14.85
2022-09-30T01:34:25.477Z,14.98
2022-09-30T01:34:52.662Z,14.32
2022-09-30T01:35:19.407Z,14.25
2022-09-30T01:35:56.491Z,14.48
2022-09-30T01:36:29.424Z,13.90
2022-09-30T01:37:08.368Z,14.52
2022-09-30T01:37:35.501Z,14.70
2022-09-30T01:38:01.902Z,13.75
2022-09-30T01:38:30.399Z,13.90
2022-09-30T01:38:57.673Z,13.80
2022-09-30T01:39:30.757Z,14.38
2022-09-30T01:39:58.152Z,14.25
2022-09-30T01:40:23.556Z,14.18
2022-09-30T01:40:48.970Z,12.95
2022-09-30T01:41:13.382Z,14.77
2022-09-30T01:41:42.413Z,14.00
2022-09-30T01:42:10.420Z,13.63
2022-09-30T01:42:38.413Z,13.43
2022-09-30T01:43:05.282Z,13.80
2022-09-30T01:43:32.357Z,13.57
2022-09-30T01:43:58.922Z,14.05
2022-09-30T01:44:29.746Z,13.48
2022-09-30T01:44:55.771Z,13.35
2022-09-30T01:45:20.798Z,13.55
2022-09-30T01:45:46.938Z,13.73
2022-09-30T01:46:17.188Z,13.85
2022-09-30T01:46:44.733Z,13.63
2022-09-30T01:47:10.972Z,14.20
2022-09-30T01:47:36.747Z,16.40
2022-09-30T01:48:00.971Z,14.32
2022-09-30T01:48:26.098Z,13.90
2022-09-30T01:48:52.806Z,14.25
2022-09-30T01:49:20.723Z,14.77
2022-09-30T01:49:45.173Z,14.55
2022-09-30T01:50:10.017Z,14.32
2022-09-30T01:50:36.962Z,15.18
2022-09-30T01:51:01.483Z,15.65
2022-09-30T01:51:29.150Z,14.52
2022-09-30T01:51:54.761Z,14.63
2022-09-30T01:52:19.954Z,14.27
2022-09-30T01:52:45.036Z,14.68
2022-09-30T01:53:11.046Z,16.25
2022-09-30T01:53:37.306Z,16.73
2022-09-30T01:54:01.357Z,14.15
2022-09-30T01:54:27.367Z,13.93
2022-09-30T01:54:53.255Z,14.55
2022-09-30T01:55:19.108Z,13.90
2022-09-30T01:55:45.708Z,14.38
2022-09-30T01:56:13.139Z,13.57
2022-09-30T01:56:38.202Z,13.98
2022-09-30T01:57:03.120Z,13.88
2022-09-30T01:57:28.057Z,13.50
2022-09-30T01:57:53.332Z,13.95
2022-09-30T01:58:20.140Z,13.57
2022-09-30T01:58:44.813Z,13.57
2022-09-30T01:59:08.552Z,14.10
2022-09-30T01:59:34.168Z,13.88
2022-09-30T01:59:58.903Z,13.13
2022-09-30T02:00:21.588Z,13.45
2022-09-30T02:00:49.969Z,13.75
2022-09-30T02:01:16.581Z,14.15
2022-09-30T02:01:42.435Z,13.43
2022-09-30T02:02:07.015Z,13.98
2022-09-30T02:02:30.523Z,13.70
2022-09-30T02:02:54.728Z,14.10
2022-09-30T02:03:19.222Z,13.48
2022-09-30T02:03:45.510Z,13.48
2022-09-30T02:04:09.460Z,14.20
2022-09-30T02:04:33.343Z,14.88
2022-09-30T02:04:57.930Z,14.45
2022-09-30T02:05:22.253Z,14.32
2022-09-30T02:05:47.077Z,14.43
2022-09-30T02:06:12.209Z,14.75
2022-09-30T02:06:38.283Z,15.13
2022-09-30T02:07:03.509Z,14.93
2022-09-30T02:07:28.643Z,14.43
2022-09-30T02:07:54.729Z,15.32
2022-09-30T02:08:19.608Z,14.57
2022-09-30T02:08:44.558Z,14.98
2022-09-30T02:09:09.611Z,15.38
2022-09-30T02:09:34.329Z,15.30
2022-09-30T02:10:00.007Z,16.38
2022-09-30T02:10:25.336Z,14.88
2022-09-30T02:10:49.257Z,14.45
2022-09-30T02:11:13.617Z,15.20
2022-09-30T02:11:37.457Z,14.45
2022-09-30T02:12:00.276Z,13.73
2022-09-30T02:12:24.326Z,14.15
2022-09-30T02:12:48.977Z,14.38
2022-09-30T02:13:15.843Z,14.38
2022-09-30T02:13:42.115Z,13.82
2022-09-30T02:14:07.057Z,16.13
2022-09-30T02:14:32.368Z,14.40
2022-09-30T02:14:57.973Z,15.20
2022-09-30T02:15:23.741Z,14.10
2022-09-30T02:15:54.572Z,14.95
2022-09-30T02:16:20.384Z,14.77
2022-09-30T02:16:47.247Z,15.57
2022-09-30T02:17:11.354Z,15.13
2022-09-30T02:17:35.424Z,14.43
2022-09-30T02:18:01.025Z,14.50
2022-09-30T02:18:27.538Z,15.15
2022-09-30T02:18:51.723Z,14.70
2022-09-30T02:19:18.550Z,14.20
2022-09-30T02:19:44.786Z,14.95
2022-09-30T02:20:09.353Z,13.63
2022-09-30T02:20:33.418Z,13.50
2022-09-30T02:20:58.648Z,13.82
2022-09-30T02:21:22.908Z,13.50
2022-09-30T02:21:48.688Z,13.40
2022-09-30T02:22:14.419Z,13.20
2022-09-30T02:22:42.739Z,12.30
2022-09-30T02:23:08.502Z,12.77
2022-09-30T02:23:32.724Z,12.70
2022-09-30T02:24:00.525Z,12.80
2022-09-30T02:24:25.472Z,13.00
2022-09-30T02:24:49.360Z,12.63
2022-09-30T02:25:20.559Z,11.93
2022-09-30T02:25:45.173Z,12.13
2022-09-30T02:26:10.433Z,13.18
2022-09-30T02:26:34.897Z,12.88
2022-09-30T02:26:57.668Z,12.93
2022-09-30T02:27:21.452Z,11.93
2022-09-30T02:27:48.597Z,11.25
2022-09-30T02:28:12.818Z,11.15
2022-09-30T02:28:38.927Z,11.18
2022-09-30T02:29:04.519Z,10.93
2022-09-30T02:29:30.740Z,11.48
2022-09-30T02:29:56.679Z,12.02
2022-09-30T02:30:19.377Z,11.02
2022-09-30T02:30:44.163Z,11.00
2022-09-30T02:31:09.322Z,12.48
2022-09-30T02:31:32.888Z,10.75
2022-09-30T02:31:58.417Z,11.20
2022-09-30T02:32:22.743Z,10.45
2022-09-30T02:32:47.697Z,10.50
2022-09-30T02:33:12.371Z,10.60
2022-09-30T02:33:38.578Z,10.77
2022-09-30T02:34:02.367Z,12.02
2022-09-30T02:34:26.627Z,10.45
2022-09-30T02:34:51.395Z,11.25
2022-09-30T02:35:18.517Z,11.10
2022-09-30T02:35:45.668Z,10.27
2022-09-30T02:36:09.747Z,10.38
2022-09-30T02:36:33.758Z,10.32
2022-09-30T02:37:01.452Z,9.95
2022-09-30T02:37:27.213Z,10.40
2022-09-30T02:37:51.333Z,11.40
2022-09-30T02:38:16.007Z,10.13
2022-09-30T02:38:41.652Z,10.38
2022-09-30T02:39:06.714Z,10.23
2022-09-30T02:39:32.117Z,11.25
2022-09-30T02:39:57.438Z,10.35
2022-09-30T02:40:22.363Z,10.75
2022-09-30T02:40:48.353Z,9.82
2022-09-30T02:41:12.777Z,9.98
2022-09-30T02:41:38.868Z,11.10
2022-09-30T02:42:04.444Z,10.15
2022-09-30T02:42:28.683Z,10.50
2022-09-30T02:42:51.383Z,10.40
2022-09-30T02:43:14.152Z,10.70
2022-09-30T02:43:36.838Z,10.02
2022-09-30T02:44:00.183Z,10.23
2022-09-30T02:44:22.823Z,10.25
2022-09-30T02:44:45.613Z,10.65
2022-09-30T02:45:10.493Z,10.43
2022-09-30T02:45:35.527Z,10.63
2022-09-30T02:46:03.833Z,10.20
2022-09-30T02:46:33.393Z,9.75
2022-09-30T02:46:59.264Z,10.27
2022-09-30T02:47:26.087Z,9.68
2022-09-30T02:48:01.917Z,10.05
2022-09-30T02:48:29.852Z,10.18
2022-09-30T02:48:56.327Z,10.38
2022-09-30T02:49:21.757Z,10.23
2022-09-30T02:49:47.903Z,10.13
2022-09-30T02:50:13.442Z,9.93
2022-09-30T02:50:39.236Z,10.02
2022-09-30T02:51:04.127Z,10.77
2022-09-30T02:51:30.252Z,10.75
2022-09-30T02:52:02.137Z,10.00
2022-09-30T02:52:27.646Z,9.70
2022-09-30T02:52:56.011Z,10.10
2022-09-30T02:53:23.388Z,10.27
2022-09-30T02:53:49.767Z,10.10
2022-09-30T02:54:16.630Z,10.23
2022-09-30T02:54:45.107Z,9.77
2022-09-30T02:55:15.255Z,9.93
2022-09-30T02:55:47.712Z,10.02
2022-09-30T02:56:16.324Z,9.90
2022-09-30T02:56:43.282Z,9.88
2022-09-30T02:57:10.098Z,10.02
2022-09-30T02:57:37.026Z,10.07
2022-09-30T02:58:01.278Z,9.93
2022-09-30T02:58:26.419Z,9.52
2022-09-30T02:58:49.147Z,10.55
2022-09-30T02:59:11.882Z,9.93
2022-09-30T02:59:34.647Z,10.10
2022-09-30T02:59:57.932Z,10.05
2022-09-30T03:00:20.653Z,9.93
2022-09-30T03:00:43.413Z,9.98
2022-09-30T03:01:07.747Z,10.20
2022-09-30T03:01:32.002Z,10.68
2022-09-30T03:01:54.946Z,10.75
2022-09-30T03:02:17.846Z,9.48
2022-09-30T03:02:40.873Z,9.93
2022-09-30T03:03:05.397Z,9.38
2022-09-30T03:03:29.391Z,10.15
2022-09-30T03:03:54.002Z,11.60
2022-09-30T03:04:18.591Z,10.60
2022-09-30T03:04:41.762Z,10.35
2022-09-30T03:05:04.967Z,10.82
2022-09-30T03:05:29.467Z,11.73
2022-09-30T03:05:52.162Z,11.10
2022-09-30T03:06:14.907Z,11.95
2022-09-30T03:06:37.636Z,11.23
2022-09-30T03:07:00.416Z,11.68
2022-09-30T03:07:23.132Z,10.75
2022-09-30T03:07:45.856Z,10.73
2022-09-30T03:08:08.517Z,10.77
2022-09-30T03:08:31.204Z,11.48
2022-09-30T03:08:54.070Z,11.27
2022-09-30T03:09:16.868Z,11.23
2022-09-30T03:09:39.746Z,11.68
2022-09-30T03:10:06.681Z,10.63
2022-09-30T03:10:29.418Z,10.77
2022-09-30T03:10:52.086Z,10.77
2022-09-30T03:11:15.789Z,10.70
2022-09-30T03:11:38.552Z,10.00
2022-09-30T03:12:06.136Z,9.40
2022-09-30T03:12:35.723Z,9.52
2022-09-30T03:13:17.490Z,10.80
2022-09-30T03:14:06.225Z,9.75
2022-09-30T03:14:54.406Z,10.38
2022-09-30T03:15:34.900Z,10.35
2022-09-30T03:16:05.689Z,9.23
2022-09-30T03:16:37.336Z,9.23
2022-09-30T03:17:17.301Z,9.15
2022-09-30T03:17:49.486Z,9.40
2022-09-30T03:18:33.375Z,9.57
2022-09-30T03:19:02.411Z,9.65
2022-09-30T03:19:32.801Z,10.23
2022-09-30T03:20:10.451Z,10.60
2022-09-30T03:20:46.228Z,10.13
2022-09-30T03:21:13.261Z,10.20
2022-09-30T03:21:45.440Z,9.52
2022-09-30T03:22:20.315Z,9.88
2022-09-30T03:23:11.689Z,9.82
2022-09-30T03:24:00.486Z,9.77
2022-09-30T03:24:36.475Z,9.90
2022-09-30T03:25:11.674Z,10.50
2022-09-30T03:25:38.553Z,10.25
2022-09-30T03:26:05.770Z,10.90
2022-09-30T03:26:36.349Z,10.40
2022-09-30T03:27:06.757Z,10.23
2022-09-30T03:27:32.647Z,10.73
2022-09-30T03:28:02.427Z,10.88
2022-09-30T03:28:27.542Z,11.55
2022-09-30T03:28:54.294Z,10.73
2022-09-30T03:29:19.747Z,10.45
2022-09-30T03:29:47.065Z,10.30
2022-09-30T03:30:11.570Z,10.18
2022-09-30T03:30:35.529Z,10.85
2022-09-30T03:31:04.737Z,9.98
2022-09-30T03:31:33.339Z,9.93
2022-09-30T03:32:02.584Z,10.52
2022-09-30T03:32:32.715Z,11.73
2022-09-30T03:33:06.260Z,10.75
2022-09-30T03:33:33.476Z,11.20
2022-09-30T03:33:59.064Z,11.95
2022-09-30T03:34:27.738Z,10.48
2022-09-30T03:35:00.998Z,10.07
2022-09-30T03:35:30.331Z,11.55
2022-09-30T03:35:57.784Z,10.95
2022-09-30T03:36:25.749Z,10.65
2022-09-30T03:36:53.843Z,10.77
2022-09-30T03:37:19.102Z,11.23
2022-09-30T03:37:47.058Z,10.77
2022-09-30T03:38:13.018Z,10.25
2022-09-30T03:38:40.001Z,10.18
2022-09-30T03:39:04.699Z,9.75
2022-09-30T03:39:31.168Z,10.13
2022-09-30T03:39:56.816Z,10.77
2022-09-30T03:40:25.051Z,10.93
2022-09-30T03:40:51.841Z,10.90
2022-09-30T03:41:18.712Z,10.75
2022-09-30T03:41:43.089Z,11.35
2022-09-30T03:42:09.607Z,11.07
2022-09-30T03:42:35.194Z,10.48
2022-09-30T03:43:00.449Z,10.07
2022-09-30T03:43:26.238Z,11.35
2022-09-30T03:43:50.156Z,11.43
2022-09-30T03:44:15.437Z,10.75
2022-09-30T03:44:41.117Z,10.93
2022-09-30T03:45:08.007Z,9.63
2022-09-30T03:45:31.921Z,10.55
2022-09-30T03:45:57.629Z,10.65
2022-09-30T03:46:24.016Z,10.15
2022-09-30T03:46:50.338Z,9.80
2022-09-30T03:47:14.755Z,10.38
2022-09-30T03:47:41.134Z,11.05
2022-09-30T03:48:05.539Z,11.07
2022-09-30T03:48:28.370Z,10.88
2022-09-30T03:48:52.249Z,10.77
2022-09-30T03:49:16.547Z,11.00
2022-09-30T03:49:40.530Z,10.60
2022-09-30T03:50:04.784Z,11.23
2022-09-30T03:50:27.848Z,11.07
2022-09-30T03:50:50.714Z,11.63
2022-09-30T03:51:13.803Z,11.27
2022-09-30T03:51:36.928Z,11.00
2022-09-30T03:51:59.835Z,11.90
2022-09-30T03:52:22.556Z,11.65
2022-09-30T03:52:45.246Z,11.57
2022-09-30T03:53:11.216Z,11.65
2022-09-30T03:53:38.711Z,12.80
2022-09-30T03:54:01.423Z,12.13
2022-09-30T03:54:26.747Z,11.30
2022-09-30T03:54:50.958Z,11.90
2022-09-30T03:55:13.711Z,11.95
2022-09-30T03:55:44.497Z,12.20
2022-09-30T03:56:09.961Z,11.98
2022-09-30T03:56:32.671Z,11.60
2022-09-30T03:56:56.800Z,12.27
2022-09-30T03:57:19.518Z,12.55
2022-09-30T03:57:44.511Z,13.32
2022-09-30T03:58:08.028Z,12.23
2022-09-30T03:58:30.889Z,11.68
2022-09-30T03:58:54.648Z,11.45
2022-09-30T03:59:22.166Z,11.60
2022-09-30T03:59:45.124Z,11.40
2022-09-30T04:00:08.688Z,11.60
2022-09-30T04:00:32.919Z,11.70
2022-09-30T04:00:57.253Z,12.02
2022-09-30T04:01:23.388Z,11.35
2022-09-30T04:01:47.602Z,11.38
2022-09-30T04:02:10.799Z,11.02
2022-09-30T04:02:33.544Z,11.05
2022-09-30T04:02:57.976Z,10.75
2022-09-30T04:03:21.485Z,11.35
2022-09-30T04:03:44.325Z,10.70
2022-09-30T04:04:07.172Z,10.68
2022-09-30T04:04:30.005Z,10.60
2022-09-30T04:04:52.809Z,11.02
2022-09-30T04:05:15.704Z,12.65
2022-09-30T04:05:38.391Z,12.48
2022-09-30T04:06:01.200Z,12.55
2022-09-30T04:06:24.733Z,11.18
2022-09-30T04:06:47.670Z,13.27
2022-09-30T04:07:10.664Z,11.15
2022-09-30T04:07:33.306Z,10.75
2022-09-30T04:07:56.026Z,10.52
2022-09-30T04:08:18.770Z,10.35
2022-09-30T04:08:41.824Z,10.75
2022-09-30T04:09:04.849Z,11.30
2022-09-30T04:09:27.744Z,11.10
2022-09-30T04:09:50.637Z,10.57
2022-09-30T04:10:13.527Z,11.23
2022-09-30T04:10:36.326Z,10.57
2022-09-30T04:10:59.131Z,10.38
2022-09-30T04:11:21.823Z,10.32
2022-09-30T04:11:44.561Z,10.88
2022-09-30T04:12:07.495Z,9.93
2022-09-30T04:12:32.812Z,9.90
2022-09-30T04:12:55.691Z,10.30
2022-09-30T04:13:18.405Z,10.70
2022-09-30T04:13:41.204Z,9.75
2022-09-30T04:14:04.110Z,9.65
2022-09-30T04:14:26.793Z,9.45
2022-09-30T04:14:49.470Z,10.07
2022-09-30T04:15:12.308Z,9.55
2022-09-30T04:15:35.181Z,9.70
2022-09-30T04:15:58.603Z,9.45
2022-09-30T04:16:21.500Z,9.05
2022-09-30T04:16:44.442Z,10.98
2022-09-30T04:17:08.681Z,10.48
2022-09-30T04:17:32.079Z,11.25
2022-09-30T04:17:55.050Z,10.82
2022-09-30T04:18:17.809Z,10.10
2022-09-30T04:18:40.670Z,10.30
2022-09-30T04:19:04.116Z,9.60
2022-09-30T04:19:27.386Z,10.48
2022-09-30T04:19:50.086Z,10.70
2022-09-30T04:20:13.006Z,11.43
2022-09-30T04:20:35.768Z,11.35
2022-09-30T04:20:59.263Z,11.18
2022-09-30T04:21:22.026Z,10.77
2022-09-30T04:21:44.761Z,10.30
2022-09-30T04:22:07.596Z,10.32
2022-09-30T04:22:30.302Z,10.23
2022-09-30T04:22:53.004Z,10.07
2022-09-30T04:23:16.370Z,10.15
2022-09-30T04:23:39.534Z,10.27
2022-09-30T04:24:02.595Z,10.90
2022-09-30T04:24:25.560Z,10.00
2022-09-30T04:24:48.482Z,9.77
2022-09-30T04:25:14.023Z,9.77
2022-09-30T04:25:36.731Z,9.45
2022-09-30T04:25:59.506Z,9.88
2022-09-30T04:26:23.220Z,9.55
2022-09-30T04:26:46.011Z,9.73
2022-09-30T04:27:08.804Z,10.85
2022-09-30T04:27:31.691Z,9.48
2022-09-30T04:27:54.333Z,9.18
2022-09-30T04:28:17.143Z,9.48
2022-09-30T04:28:39.856Z,9.55
2022-09-30T04:29:02.550Z,9.65
2022-09-30T04:29:25.296Z,9.50
2022-09-30T04:29:48.001Z,8.75
2022-09-30T04:30:11.841Z,10.20
2022-09-30T04:30:34.615Z,9.23
2022-09-30T04:31:00.001Z,9.27
2022-09-30T04:31:22.813Z,9.38
2022-09-30T04:31:48.152Z,9.45
2022-09-30T04:32:13.446Z,9.05
2022-09-30T04:32:36.165Z,9.30
2022-09-30T04:32:59.025Z,9.48
2022-09-30T04:33:21.730Z,9.13
2022-09-30T04:33:45.352Z,9.13
2022-09-30T04:34:08.286Z,8.90
2022-09-30T04:34:31.277Z,9.13
2022-09-30T04:34:54.906Z,9.18
2022-09-30T04:35:17.627Z,9.10
2022-09-30T04:35:40.313Z,9.32
2022-09-30T04:36:03.216Z,10.30
2022-09-30T04:36:26.074Z,10.25
2022-09-30T04:36:48.831Z,9.77
2022-09-30T04:37:11.517Z,9.55
2022-09-30T04:37:34.255Z,9.57
2022-09-30T04:37:57.018Z,9.32
2022-09-30T04:38:20.276Z,9.48
2022-09-30T04:38:44.060Z,9.27
2022-09-30T04:39:06.791Z,8.73
2022-09-30T04:39:29.481Z,9.00
2022-09-30T04:39:52.152Z,9.40
2022-09-30T04:40:16.006Z,8.98
2022-09-30T04:40:38.812Z,9.60
2022-09-30T04:41:04.169Z,9.38
2022-09-30T04:41:27.241Z,9.50
2022-09-30T04:41:50.671Z,8.80
2022-09-30T04:42:13.415Z,8.13
2022-09-30T04:42:36.251Z,9.70
2022-09-30T04:42:59.360Z,9.55
2022-09-30T04:43:25.372Z,10.70
2022-09-30T04:43:48.721Z,10.23
2022-09-30T04:44:13.952Z,8.88
2022-09-30T04:44:36.663Z,8.40
2022-09-30T04:44:59.384Z,9.02
2022-09-30T04:45:22.111Z,8.43
2022-09-30T04:45:45.172Z,8.50
2022-09-30T04:46:07.935Z,8.50
2022-09-30T04:46:30.676Z,11.52
2022-09-30T04:46:55.836Z,8.45
2022-09-30T04:47:20.390Z,11.23
2022-09-30T04:47:44.846Z,8.52
2022-09-30T04:48:07.672Z,8.57
2022-09-30T04:48:31.560Z,8.63
2022-09-30T04:48:54.491Z,9.20
2022-09-30T04:49:17.393Z,8.93
2022-09-30T04:49:40.246Z,9.43
2022-09-30T04:50:02.975Z,9.52
2022-09-30T04:50:26.081Z,9.30
2022-09-30T04:50:49.027Z,10.38
2022-09-30T04:51:11.852Z,9.88
2022-09-30T04:51:34.537Z,10.55
2022-09-30T04:51:57.432Z,10.63
2022-09-30T04:52:20.141Z,10.13
2022-09-30T04:52:43.740Z,11.18
2022-09-30T04:53:06.734Z,10.00
2022-09-30T04:53:30.418Z,10.35
2022-09-30T04:53:53.243Z,10.45
2022-09-30T04:54:16.809Z,10.88
2022-09-30T04:54:39.689Z,10.68
2022-09-30T04:55:02.506Z,10.52
2022-09-30T04:55:25.178Z,10.38
2022-09-30T04:55:47.981Z,10.10
2022-09-30T04:56:10.722Z,9.88
2022-09-30T04:56:33.582Z,10.85
2022-09-30T04:56:56.321Z,10.18
2022-09-30T04:57:19.131Z,9.73
2022-09-30T04:57:44.497Z,9.65
2022-09-30T04:58:07.600Z,10.57
2022-09-30T04:58:36.850Z,9.85
2022-09-30T04:58:59.978Z,9.30
2022-09-30T04:59:22.833Z,9.48
2022-09-30T04:59:45.870Z,9.02
2022-09-30T05:00:10.577Z,9.20
2022-09-30T05:00:33.434Z,9.45
2022-09-30T05:01:01.645Z,10.20
2022-09-30T05:01:24.530Z,9.95
2022-09-30T05:01:47.410Z,9.80
2022-09-30T05:02:11.334Z,9.68
2022-09-30T05:02:36.013Z,9.70
2022-09-30T05:02:59.059Z,9.93
2022-09-30T05:03:21.762Z,9.85
2022-09-30T05:03:44.607Z,12.23
2022-09-30T05:04:10.545Z,10.82
2022-09-30T05:04:33.795Z,10.57
2022-09-30T05:04:56.491Z,10.80
2022-09-30T05:05:19.172Z,11.93
2022-09-30T05:05:44.303Z,11.40
2022-09-30T05:06:07.233Z,11.82
2022-09-30T05:06:30.057Z,12.73
2022-09-30T05:06:52.763Z,11.68
2022-09-30T05:07:15.473Z,11.75
2022-09-30T05:07:38.173Z,12.95
2022-09-30T05:08:02.006Z,10.80
2022-09-30T05:08:24.863Z,11.48
2022-09-30T05:08:48.648Z,12.73
2022-09-30T05:09:11.319Z,12.98
2022-09-30T05:09:34.500Z,10.40
2022-09-30T05:09:57.290Z,10.57
2022-09-30T05:10:20.362Z,11.57
2022-09-30T05:10:43.040Z,13.57
2022-09-30T05:11:09.969Z,12.68
2022-09-30T05:11:32.666Z,11.48
2022-09-30T05:11:55.341Z,11.50
2022-09-30T05:12:18.100Z,11.02
2022-09-30T05:12:45.040Z,11.07
2022-09-30T05:13:07.896Z,11.57
2022-09-30T05:13:31.438Z,11.15
2022-09-30T05:13:54.750Z,11.00
2022-09-30T05:14:17.610Z,10.05
2022-09-30T05:14:40.297Z,10.38
2022-09-30T05:15:03.197Z,10.38
2022-09-30T05:15:26.185Z,10.30
2022-09-30T05:15:49.333Z,10.07
2022-09-30T05:16:12.175Z,10.63
2022-09-30T05:16:35.058Z,10.40
2022-09-30T05:16:57.821Z,10.52
2022-09-30T05:17:20.547Z,10.75
2022-09-30T05:17:44.621Z,10.75
2022-09-30T05:18:07.357Z,11.20
2022-09-30T05:18:30.087Z,11.70
2022-09-30T05:18:54.238Z,10.43
2022-09-30T05:19:17.667Z,10.90
2022-09-30T05:19:40.387Z,11.65
2022-09-30T05:20:03.272Z,11.90
2022-09-30T05:20:26.132Z,11.75
2022-09-30T05:20:51.245Z,11.57
2022-09-30T05:21:14.353Z,11.75
2022-09-30T05:21:37.145Z,11.23
2022-09-30T05:21:59.929Z,10.80
2022-09-30T05:22:24.816Z,10.73
2022-09-30T05:22:47.774Z,10.48
2022-09-30T05:23:10.886Z,10.82
2022-09-30T05:23:33.677Z,10.52
2022-09-30T05:23:56.486Z,9.95
2022-09-30T05:24:19.327Z,10.07
2022-09-30T05:24:42.169Z,10.65
2022-09-30T05:25:05.833Z,11.35
2022-09-30T05:25:28.618Z,10.25
2022-09-30T05:25:52.404Z,10.77
2022-09-30T05:26:15.206Z,12.40
2022-09-30T05:26:38.044Z,11.02
2022-09-30T05:27:01.284Z,11.02
2022-09-30T05:27:24.009Z,10.63
2022-09-30T05:27:49.251Z,10.82
2022-09-30T05:28:12.665Z,10.90
2022-09-30T05:28:35.424Z,9.95
2022-09-30T05:28:58.369Z,13.73
2022-09-30T05:29:21.170Z,14.00
2022-09-30T05:29:43.927Z,11.27